Time;durP1;ratioP1;P1;durP2;ratioP2;P2;SDS_P1;SDS_P2;PMS_P1;PMS_P2;Temp;Humidity;BMP_temperature;BMP_pressure;BME280_temperature;BME280_humidity;BME280_pressure;Samples;Min_cycle;Max_cycle;Signal;HPM_P1;HPM_P2
2024/01/25 00:01:56;;;;;;;0.40;0.30;;;;;;;9.66;46.73;101571.84;4897646;29;20928;-85
2024/01/25 00:04:26;;;;;;;0.80;0.63;;;;;;;9.66;46.21;101574.50;4901443;29;20410;-82
2024/01/25 00:06:57;;;;;;;1.42;0.60;;;;;;;9.75;46.77;101533.09;4903935;29;20495;-85
2024/01/25 00:09:25;;;;;;;0.70;0.52;;;;;;;9.73;46.79;101551.75;4899522;29;20400;-85
2024/01/25 00:11:54;;;;;;;0.50;0.32;;;;;;;9.81;47.14;101544.91;4896993;29;20445;-86
2024/01/25 00:14:32;;;;;;;0.47;0.38;;;;;;;9.82;47.13;101552.72;4898033;29;20429;-86
2024/01/25 00:17:02;;;;;;;0.77;0.50;;;;;;;9.83;47.27;101513.81;4895939;29;20436;-87
2024/01/25 00:19:32;;;;;;;0.80;0.40;;;;;;;9.82;47.29;101512.16;4895919;29;20410;-86
2024/01/25 00:22:03;;;;;;;0.60;0.47;;;;;;;9.85;47.19;101502.13;4897205;29;20398;-86
2024/01/25 00:24:33;;;;;;;0.33;0.30;;;;;;;9.76;46.31;101476.53;4897950;29;21028;-85
2024/01/25 00:26:59;;;;;;;0.85;0.50;;;;;;;9.85;47.20;101507.41;4905971;29;20953;-87
2024/01/25 00:29:28;;;;;;;1.13;0.65;;;;;;;9.88;47.18;101511.56;4898086;29;20436;-86
2024/01/25 00:31:58;;;;;;;0.60;0.30;;;;;;;9.93;47.58;101523.41;4897670;29;20446;-86
2024/01/25 00:34:27;;;;;;;0.80;0.60;;;;;;;9.91;47.01;101519.25;4896486;29;20410;-86
2024/01/25 00:36:56;;;;;;;0.90;0.30;;;;;;;10.00;47.31;101522.81;4896009;29;20418;-85
2024/01/25 00:39:25;;;;;;;1.43;0.70;;;;;;;10.05;47.60;101533.81;4896180;29;20402;-86
2024/01/25 00:42:04;;;;;;;0.75;0.52;;;;;;;10.12;47.76;101538.38;4896065;29;20755;-86
2024/01/25 00:44:32;;;;;;;0.40;0.40;;;;;;;10.11;48.07;101531.41;4881357;29;20407;-87
2024/01/25 00:47:01;;;;;;;0.90;0.70;;;;;;;10.14;47.58;101540.88;4895953;29;20459;-86
2024/01/25 00:49:29;;;;;;;1.10;0.50;;;;;;;10.07;47.14;101530.03;4897426;29;20909;-85
2024/01/25 00:52:02;;;;;;;0.30;0.25;;;;;;;9.98;47.19;101533.56;4895870;29;20406;-85
2024/01/25 00:54:28;;;;;;;0.40;0.30;;;;;;;10.06;47.46;101531.00;4895979;29;20421;-85
2024/01/25 00:56:56;;;;;;;0.60;0.40;;;;;;;10.16;47.45;101535.44;4895660;29;20394;-85
2024/01/25 00:59:28;;;;;;;0.30;0.30;;;;;;;10.17;47.49;101521.19;4896352;29;20445;-85
2024/01/25 01:01:59;;;;;;;0.38;0.32;;;;;;;10.14;46.96;101519.69;4896122;29;20856;-85
2024/01/25 01:04:28;;;;;;;0.70;0.35;;;;;;;10.05;46.77;101520.56;4896363;29;20916;-86
2024/01/25 01:06:56;;;;;;;0.82;0.40;;;;;;;9.92;47.05;101503.22;4894918;29;20409;-87
2024/01/25 01:09:26;;;;;;;0.90;0.50;;;;;;;9.92;46.53;101503.22;4897428;29;20458;-85
2024/01/25 01:11:58;;;;;;;1.17;0.57;;;;;;;9.82;46.42;101506.88;4894354;29;20481;-85
2024/01/25 01:14:26;;;;;;;2.25;0.70;;;;;;;9.86;47.11;101511.72;4894253;29;20933;-86
2024/01/25 01:17:00;;;;;;;3.25;0.80;;;;;;;9.85;46.78;101506.56;4894274;29;20398;-85
2024/01/25 01:19:30;;;;;;;1.25;0.43;;;;;;;9.95;46.81;101494.94;4892907;29;20417;-85
2024/01/25 01:21:57;;;;;;;1.10;0.50;;;;;;;10.03;47.20;101502.19;4894154;29;20909;-85
2024/01/25 01:24:29;;;;;;;1.40;0.60;;;;;;;10.13;46.91;101499.47;4894957;29;20406;-86
2024/01/25 01:26:59;;;;;;;0.77;0.40;;;;;;;10.16;47.18;101485.94;4910499;29;20398;-86
2024/01/25 01:29:26;;;;;;;1.45;0.52;;;;;;;10.25;46.88;101477.09;4894234;29;20398;-86
2024/01/25 01:31:56;;;;;;;1.70;0.82;;;;;;;10.27;46.82;101464.53;4894425;29;20876;-86
2024/01/25 01:34:27;;;;;;;1.10;0.52;;;;;;;10.39;46.90;101473.13;4894473;29;20798;-85
2024/01/25 01:36:58;;;;;;;1.02;0.45;;;;;;;10.35;46.88;101458.50;4892758;29;20818;-86
2024/01/25 01:39:26;;;;;;;0.60;0.30;;;;;;;10.50;46.74;101462.31;4892739;29;20940;-86
2024/01/25 01:41:52;;;;;;;0.88;0.43;;;;;;;10.70;46.81;101465.63;4893228;29;20493;-86
2024/01/25 01:44:21;;;;;;;0.60;0.40;;;;;;;10.78;46.48;101472.00;4894056;29;20755;-86
2024/01/25 01:46:50;;;;;;;0.60;0.35;;;;;;;10.90;46.29;101468.13;4895241;29;20402;-86
2024/01/25 01:49:19;;;;;;;1.30;0.50;;;;;;;10.95;46.23;101478.25;4892474;29;20413;-87
2024/01/25 01:51:45;;;;;;;0.50;0.32;;;;;;;10.97;46.14;101466.53;4893930;29;20405;-87
2024/01/25 01:54:11;;;;;;;0.27;0.23;;;;;;;11.00;46.08;101457.41;4892718;29;20771;-86
2024/01/25 01:56:44;;;;;;;0.95;0.52;;;;;;;10.99;46.43;101466.38;4894259;29;20398;-87
2024/01/25 01:59:13;;;;;;;2.05;0.70;;;;;;;11.01;46.41;101453.78;4876480;29;20501;-86
2024/01/25 02:01:41;;;;;;;1.27;0.68;;;;;;;11.05;45.80;101463.91;4894014;29;20419;-87
2024/01/25 02:04:09;;;;;;;0.80;0.40;;;;;;;11.01;45.99;101473.19;4894158;29;20409;-86
2024/01/25 02:06:35;;;;;;;1.07;0.40;;;;;;;11.17;45.71;101480.44;4894281;29;20421;-86
2024/01/25 02:09:04;;;;;;;1.70;0.50;;;;;;;11.22;45.78;101498.56;4902324;29;20529;-84
2024/01/25 02:11:37;;;;;;;0.40;0.30;;;;;;;11.09;46.07;101485.66;4898312;29;20913;-86
2024/01/25 02:14:11;;;;;;;0.85;0.50;;;;;;;11.13;45.81;101475.56;4893966;29;20878;-86
2024/01/25 02:16:43;;;;;;;0.63;0.30;;;;;;;11.17;45.65;101471.66;4895412;29;20398;-86
2024/01/25 02:19:15;;;;;;;1.33;0.50;;;;;;;11.14;45.84;101479.91;4894446;29;20501;-86
2024/01/25 02:21:44;;;;;;;0.68;0.40;;;;;;;11.29;45.88;101478.38;4894161;29;20967;-85
2024/01/25 02:24:09;;;;;;;0.90;0.40;;;;;;;11.28;45.53;101466.06;4894310;29;20509;-84
2024/01/25 02:26:40;;;;;;;1.33;0.50;;;;;;;11.28;45.57;101474.03;4895840;29;20450;-83
2024/01/25 02:29:08;;;;;;;1.07;0.40;;;;;;;11.34;45.49;101472.56;4904604;29;20397;-82
2024/01/25 02:31:36;;;;;;;0.88;0.30;;;;;;;11.26;45.87;101476.84;4898150;29;20977;-85
2024/01/25 02:34:04;;;;;;;1.42;0.40;;;;;;;11.47;45.85;101480.97;4896463;29;20417;-86
2024/01/25 02:36:32;;;;;;;1.73;0.50;;;;;;;11.42;45.74;101480.59;4918211;29;20434;-85
2024/01/25 02:39:01;;;;;;;3.42;1.80;;;;;;;11.37;45.95;101485.53;4919148;29;20456;-86
2024/01/25 02:41:32;;;;;;;1.80;0.70;;;;;;;11.32;45.66;101493.13;4917679;29;20504;-85
2024/01/25 02:44:01;;;;;;;1.48;0.45;;;;;;;11.37;45.43;101497.00;4918210;29;20426;-86
2024/01/25 02:46:29;;;;;;;1.63;0.70;;;;;;;11.39;45.66;101496.84;4911178;29;20471;-85
2024/01/25 02:48:57;;;;;;;0.90;0.43;;;;;;;11.51;45.31;101505.38;4892708;29;20405;-85
2024/01/25 02:51:33;;;;;;;0.60;0.30;;;;;;;11.48;45.15;101499.38;4891571;29;20838;-86
2024/01/25 02:54:05;;;;;;;2.17;0.73;;;;;;;11.48;45.19;101493.25;4891895;29;20470;-86
2024/01/25 02:56:34;;;;;;;1.33;0.50;;;;;;;11.51;45.37;101498.25;4893529;29;20401;-86
2024/01/25 02:59:01;;;;;;;0.40;0.20;;;;;;;11.46;45.08;101506.66;4893712;29;20406;-86
2024/01/25 03:01:50;;;;;;;0.95;0.52;;;;;;;11.50;44.76;101504.53;4878504;29;20485;-86
2024/01/25 03:04:21;;;;;;;0.70;0.40;;;;;;;11.56;44.81;101508.38;4893739;29;20410;-84
2024/01/25 03:06:54;;;;;;;1.70;0.50;;;;;;;11.66;45.01;101501.97;4909761;29;20780;-86
2024/01/25 03:09:27;;;;;;;1.05;0.90;;;;;;;11.72;44.33;101505.00;4893872;29;20402;-85
2024/01/25 03:11:53;;;;;;;0.30;0.22;;;;;;;11.57;44.64;101504.75;4894590;29;20406;-86
2024/01/25 03:14:21;;;;;;;0.47;0.47;;;;;;;11.70;44.60;101506.97;4893488;29;20414;-85
2024/01/25 03:16:50;;;;;;;0.65;0.30;;;;;;;11.71;44.78;101501.50;4893395;29;20391;-84
2024/01/25 03:19:18;;;;;;;0.63;0.52;;;;;;;11.79;44.55;101495.41;4909106;29;20787;-84
2024/01/25 03:21:50;;;;;;;1.50;1.00;;;;;;;11.81;44.66;101494.25;4894939;29;20405;-85
2024/01/25 03:24:21;;;;;;;1.10;0.60;;;;;;;11.83;44.72;101488.78;4893737;29;20548;-84
2024/01/25 03:26:50;;;;;;;1.70;0.90;;;;;;;11.80;44.27;101516.50;4894511;29;20402;-85
2024/01/25 03:29:23;;;;;;;0.57;0.32;;;;;;;11.78;44.38;101505.19;4877747;29;20430;-85
2024/01/25 03:31:51;;;;;;;0.35;0.20;;;;;;;11.70;44.65;101525.56;4895984;29;20426;-85
2024/01/25 03:34:20;;;;;;;0.57;0.35;;;;;;;11.70;44.72;101521.06;4896924;29;20422;-84
2024/01/25 03:36:47;;;;;;;0.63;0.35;;;;;;;11.75;44.71;101528.59;4896180;29;20421;-84
2024/01/25 03:39:17;;;;;;;0.57;0.30;;;;;;;11.79;44.74;101524.63;4896294;29;20433;-84
2024/01/25 03:41:45;;;;;;;0.82;0.40;;;;;;;11.91;44.68;101528.69;4897182;29;20478;-84
2024/01/25 03:44:11;;;;;;;2.65;0.88;;;;;;;11.85;44.81;101534.63;4880145;29;20418;-88
2024/01/25 03:46:39;;;;;;;1.20;0.55;;;;;;;11.74;45.10;101530.41;4897184;29;20469;-87
2024/01/25 03:49:14;;;;;;;2.70;0.90;;;;;;;11.75;45.05;101540.03;4896497;29;20402;-86
2024/01/25 03:51:45;;;;;;;4.27;0.90;;;;;;;11.74;45.63;101527.75;4897315;29;20984;-86
2024/01/25 03:54:11;;;;;;;3.20;1.20;;;;;;;11.62;45.57;101513.91;4897542;29;20414;-85
2024/01/25 03:56:39;;;;;;;2.03;0.70;;;;;;;11.67;45.96;101503.66;4914406;29;20406;-85
2024/01/25 03:59:11;;;;;;;1.98;0.68;;;;;;;11.69;45.96;101513.28;4908860;29;20398;-85
2024/01/25 04:01:46;;;;;;;2.63;0.93;;;;;;;11.61;45.92;101530.84;4918820;29;20393;-85
2024/01/25 04:04:15;;;;;;;0.93;0.37;;;;;;;11.53;46.06;101517.50;4920294;29;21003;-86
2024/01/25 04:06:43;;;;;;;0.70;0.30;;;;;;;11.42;46.26;101515.94;4918464;29;20451;-85
2024/01/25 04:09:18;;;;;;;0.20;0.20;;;;;;;11.38;46.09;101500.47;4917844;29;20474;-85
2024/01/25 04:11:43;;;;;;;0.70;0.40;;;;;;;11.31;46.34;101502.94;4903705;29;20406;-84
2024/01/25 04:14:11;;;;;;;0.60;0.50;;;;;;;11.36;46.69;101491.84;4898590;29;20473;-86
2024/01/25 04:16:42;;;;;;;0.30;0.30;;;;;;;11.33;46.59;101490.34;4897203;29;20402;-86
2024/01/25 04:19:12;;;;;;;2.00;0.70;;;;;;;11.21;46.12;101486.25;4896639;29;20398;-85
2024/01/25 04:21:38;;;;;;;1.88;0.63;;;;;;;11.06;46.17;101502.75;4896037;29;20406;-86
2024/01/25 04:24:06;;;;;;;0.47;0.30;;;;;;;10.83;45.86;101480.34;4896561;29;20445;-86
2024/01/25 04:26:39;;;;;;;1.10;0.63;;;;;;;10.65;45.83;101493.59;4896519;29;20410;-86
2024/01/25 04:29:07;;;;;;;0.63;0.50;;;;;;;10.75;46.07;101488.19;4896461;29;20394;-86
2024/01/25 04:31:33;;;;;;;0.37;0.30;;;;;;;10.86;46.39;101482.69;4905976;29;20496;-85
2024/01/25 04:34:01;;;;;;;1.27;0.77;;;;;;;10.76;45.69;101474.78;4897675;29;20451;-86
2024/01/25 04:36:29;;;;;;;1.20;0.70;;;;;;;10.77;45.73;101491.53;4895651;29;20574;-86
2024/01/25 04:38:55;;;;;;;0.80;0.60;;;;;;;10.69;45.60;101487.81;4895138;29;20394;-87
2024/01/25 04:41:20;;;;;;;1.60;0.90;;;;;;;10.74;45.63;101505.13;4896642;29;20398;-88
2024/01/25 04:43:47;;;;;;;0.30;0.30;;;;;;;10.70;45.70;101509.88;4913169;29;20481;-86
2024/01/25 04:46:12;;;;;;;0.80;0.50;;;;;;;10.70;45.64;101504.59;4897290;29;20405;-87
2024/01/25 04:48:39;;;;;;;0.47;0.47;;;;;;;10.67;45.52;101508.34;4897666;29;20412;-87
2024/01/25 04:51:05;;;;;;;2.20;0.50;;;;;;;10.52;45.58;101523.97;4906505;29;20414;-84
2024/01/25 04:53:30;;;;;;;0.70;0.60;;;;;;;10.57;45.77;101522.66;4925928;29;20421;-86
2024/01/25 04:55:56;;;;;;;1.08;0.73;;;;;;;10.43;46.05;101522.19;4919214;29;20402;-89
2024/01/25 04:58:22;;;;;;;1.17;0.90;;;;;;;10.41;45.80;101523.34;4906543;29;20440;-85
2024/01/25 05:00:52;;;;;;;0.65;0.50;;;;;;;10.39;46.22;101542.03;4903459;29;20426;-90
2024/01/25 05:03:19;;;;;;;0.30;0.30;;;;;;;10.22;46.51;101534.84;4895478;29;20767;-88
2024/01/25 05:05:44;;;;;;;0.93;0.65;;;;;;;10.27;46.27;101536.06;4896313;29;20394;-86
2024/01/25 05:08:10;;;;;;;1.17;0.70;;;;;;;10.27;46.47;101545.84;4894017;29;20495;-87
2024/01/25 05:10:35;;;;;;;0.88;0.73;;;;;;;10.31;45.95;101547.25;4894493;29;20759;-86
2024/01/25 05:13:01;;;;;;;0.93;0.68;;;;;;;10.19;46.33;101548.38;4891433;29;20598;-88
2024/01/25 05:15:27;;;;;;;1.27;0.97;;;;;;;10.42;46.02;101548.84;4894592;29;20414;-86
2024/01/25 05:17:56;;;;;;;0.70;0.70;;;;;;;10.44;46.29;101553.03;4894850;29;20921;-88
2024/01/25 05:20:22;;;;;;;0.88;0.55;;;;;;;10.48;45.90;101558.88;4895644;29;20925;-86
2024/01/25 05:22:47;;;;;;;1.80;0.57;;;;;;;10.41;46.22;101576.34;4896247;29;20478;-88
2024/01/25 05:25:13;;;;;;;0.73;0.73;;;;;;;10.10;46.31;101564.19;4894169;29;20577;-86
2024/01/25 05:27:39;;;;;;;1.10;0.70;;;;;;;10.19;46.17;101578.38;4894789;29;20410;-87
2024/01/25 05:30:06;;;;;;;0.65;0.40;;;;;;;10.26;45.91;101586.56;4893807;29;20406;-85
2024/01/25 05:32:32;;;;;;;1.73;0.60;;;;;;;10.33;46.20;101590.31;4879383;29;20514;-87
2024/01/25 05:34:57;;;;;;;0.65;0.30;;;;;;;10.52;45.73;101602.66;4892783;29;20463;-85
2024/01/25 05:37:23;;;;;;;0.68;0.50;;;;;;;10.43;45.94;101590.28;4896358;29;20437;-84
2024/01/25 05:39:51;;;;;;;0.98;0.75;;;;;;;10.33;46.01;101601.78;4894092;29;20406;-86
2024/01/25 05:42:19;;;;;;;0.68;0.50;;;;;;;10.36;45.71;101603.28;4894222;29;20411;-87
2024/01/25 05:44:50;;;;;;;1.50;0.90;;;;;;;10.52;46.00;101605.31;4896500;29;20402;-87
2024/01/25 05:47:25;;;;;;;1.00;0.80;;;;;;;10.70;46.28;101622.09;4895992;29;20699;-86
2024/01/25 05:49:56;;;;;;;1.08;0.90;;;;;;;10.66;45.69;101622.53;4895606;29;20400;-86
2024/01/25 05:52:25;;;;;;;0.70;0.47;;;;;;;10.68;45.60;101624.06;4897759;29;20963;-87
2024/01/25 05:54:55;;;;;;;0.95;0.60;;;;;;;10.59;45.35;101626.75;4896189;29;20425;-87
2024/01/25 05:57:21;;;;;;;1.50;0.73;;;;;;;10.49;45.16;101626.81;4896961;29;20907;-87
2024/01/25 05:59:51;;;;;;;0.33;0.33;;;;;;;10.41;45.01;101627.53;4896291;29;20914;-87
2024/01/25 06:02:20;;;;;;;0.20;0.20;;;;;;;10.46;45.38;101632.38;4896040;29;20782;-86
2024/01/25 06:04:45;;;;;;;1.40;1.30;;;;;;;10.44;45.04;101632.56;4896211;29;20394;-86
2024/01/25 06:07:14;;;;;;;0.93;0.93;;;;;;;10.35;45.44;101630.75;4897138;29;20393;-86
2024/01/25 06:09:45;;;;;;;0.90;0.60;;;;;;;10.45;45.36;101646.66;4897397;29;20397;-85
2024/01/25 06:12:13;;;;;;;0.98;0.88;;;;;;;10.48;45.31;101641.06;4914981;29;20402;-83
2024/01/25 06:14:47;;;;;;;0.35;0.30;;;;;;;10.57;45.30;101624.25;4903325;29;20419;-86
2024/01/25 06:17:16;;;;;;;2.15;0.65;;;;;;;10.56;45.28;101635.84;4895735;29;20398;-85
2024/01/25 06:19:48;;;;;;;2.03;0.90;;;;;;;10.55;45.39;101636.81;4896779;29;20397;-87
2024/01/25 06:22:16;;;;;;;0.90;0.90;;;;;;;10.58;44.60;101643.66;4894709;29;20441;-85
2024/01/25 06:24:42;;;;;;;1.17;0.80;;;;;;;10.56;44.97;101642.97;4879381;29;20434;-85
2024/01/25 06:27:10;;;;;;;1.00;0.50;;;;;;;10.65;44.79;101648.22;4878406;29;20446;-86
2024/01/25 06:29:37;;;;;;;0.82;0.43;;;;;;;10.74;45.09;101646.50;4896357;29;20958;-85
2024/01/25 06:32:03;;;;;;;0.40;0.40;;;;;;;10.89;45.24;101644.16;4899357;29;20770;-85
2024/01/25 06:34:31;;;;;;;0.75;0.75;;;;;;;10.98;45.85;101637.13;4900739;29;20505;-85
2024/01/25 06:36:57;;;;;;;0.50;0.45;;;;;;;10.98;46.05;101645.09;4910498;29;20938;-86
2024/01/25 06:39:28;;;;;;;1.80;1.50;;;;;;;10.90;45.60;101648.50;4895978;29;20462;-85
2024/01/25 06:42:02;;;;;;;1.00;0.80;;;;;;;10.96;45.52;101649.72;4896559;29;20429;-86
2024/01/25 06:44:32;;;;;;;1.73;1.40;;;;;;;10.97;45.45;101632.84;4896317;29;20402;-86
2024/01/25 06:47:01;;;;;;;0.95;0.57;;;;;;;10.93;45.45;101648.22;4896502;29;20921;-87
2024/01/25 06:49:29;;;;;;;0.60;0.60;;;;;;;10.95;45.38;101642.72;4897760;29;20402;-87
2024/01/25 06:51:57;;;;;;;1.05;1.00;;;;;;;11.04;45.29;101644.50;4896746;29;20837;-88
2024/01/25 06:54:29;;;;;;;1.90;1.70;;;;;;;10.97;45.36;101648.75;4897881;29;20448;-86
2024/01/25 06:57:03;;;;;;;1.92;1.83;;;;;;;11.10;45.57;101646.56;4896016;29;20470;-86
2024/01/25 06:59:31;;;;;;;1.52;1.42;;;;;;;11.09;45.38;101647.53;4881238;29;20782;-85
2024/01/25 07:02:02;;;;;;;0.70;0.60;;;;;;;10.94;44.58;101651.69;4896642;29;20427;-86
2024/01/25 07:04:30;;;;;;;1.15;1.00;;;;;;;10.71;44.67;101652.09;4899067;29;20412;-85
2024/01/25 07:07:02;;;;;;;0.60;0.60;;;;;;;10.65;44.67;101658.81;4899759;29;20402;-85
2024/01/25 07:09:33;;;;;;;0.68;0.52;;;;;;;10.82;44.72;101646.59;4898439;29;20398;-85
2024/01/25 07:12:01;;;;;;;5.15;0.80;;;;;;;10.98;44.64;101647.75;4899548;29;20851;-85
2024/01/25 07:14:29;;;;;;;1.20;0.80;;;;;;;11.02;44.77;101638.50;4900185;29;20414;-86
2024/01/25 07:17:00;;;;;;;1.35;0.73;;;;;;;11.18;44.44;101627.22;4900749;29;20486;-88
2024/01/25 07:19:31;;;;;;;0.63;0.40;;;;;;;11.29;44.43;101619.88;4900739;29;20406;-87
2024/01/25 07:22:11;;;;;;;0.22;0.20;;;;;;;11.45;44.41;101619.19;4916566;29;20405;-85
2024/01/25 07:24:40;;;;;;;1.15;1.05;;;;;;;11.54;44.25;101619.22;4899750;29;20768;-86
2024/01/25 07:27:11;;;;;;;0.60;0.43;;;;;;;11.60;44.58;101608.84;4901026;29;20969;-86
2024/01/25 07:29:55;;;;;;;2.17;1.10;;;;;;;11.58;44.80;101613.47;4900836;29;20421;-85
2024/01/25 07:32:24;;;;;;;0.65;0.50;;;;;;;11.62;44.51;101606.84;4900770;29;20418;-87
2024/01/25 07:34:55;;;;;;;0.50;0.30;;;;;;;11.71;44.37;101610.41;4901807;29;20518;-86
2024/01/25 07:37:23;;;;;;;0.93;0.60;;;;;;;11.66;44.33;101605.53;4901599;29;20933;-89
2024/01/25 07:39:51;;;;;;;0.57;0.57;;;;;;;11.65;44.37;101613.69;4901032;29;20394;-90
2024/01/25 07:42:24;;;;;;;0.73;0.65;;;;;;;11.53;44.28;101601.66;4900087;29;20406;-86
2024/01/25 07:44:55;;;;;;;0.65;0.55;;;;;;;11.57;44.12;101593.19;4899430;29;20398;-86
2024/01/25 07:47:21;;;;;;;0.77;0.70;;;;;;;11.69;44.06;101604.41;4898420;29;20468;-85
2024/01/25 07:49:48;;;;;;;0.50;0.50;;;;;;;11.74;44.08;101607.44;4897218;29;20493;-85
2024/01/25 07:52:14;;;;;;;1.45;0.63;;;;;;;11.83;44.00;101608.34;4881655;29;20500;-87
2024/01/25 07:54:39;;;;;;;1.13;0.93;;;;;;;11.94;44.01;101608.09;4897970;29;20858;-87
2024/01/25 07:57:18;;;;;;;0.82;0.68;;;;;;;11.98;43.95;101609.44;4899136;29;20461;-87
2024/01/25 07:59:44;;;;;;;1.45;0.70;;;;;;;12.00;43.79;101607.47;4899902;29;20414;-88
2024/01/25 08:02:10;;;;;;;1.10;0.60;;;;;;;12.01;43.63;101613.59;4904514;29;20394;-88
2024/01/25 08:04:36;;;;;;;0.85;0.50;;;;;;;12.05;43.70;101610.47;4903213;29;20493;-88
2024/01/25 08:07:02;;;;;;;2.20;1.50;;;;;;;12.07;43.79;101602.34;4900336;29;20898;-87
2024/01/25 08:09:30;;;;;;;1.40;1.00;;;;;;;12.11;43.54;101613.50;4900291;29;20482;-87
2024/01/25 08:11:56;;;;;;;1.38;0.85;;;;;;;12.10;43.04;101614.47;4900348;29;20493;-88
2024/01/25 08:14:21;;;;;;;0.97;0.70;;;;;;;12.12;43.32;101616.00;4900486;29;20493;-86
2024/01/25 08:16:50;;;;;;;0.60;0.50;;;;;;;12.17;42.84;101626.16;4908357;29;20488;-85
2024/01/25 08:19:20;;;;;;;0.50;0.50;;;;;;;12.26;42.78;101622.53;4904028;29;20480;-87
2024/01/25 08:21:46;;;;;;;0.77;0.60;;;;;;;12.28;42.75;101625.03;4901859;29;20430;-88
2024/01/25 08:24:18;;;;;;;1.38;0.65;;;;;;;12.35;43.23;101628.72;4899708;29;20417;-90
2024/01/25 08:26:46;;;;;;;1.80;0.55;;;;;;;12.49;43.42;101628.13;4901788;29;20493;-87
2024/01/25 08:29:12;;;;;;;0.55;0.38;;;;;;;12.35;42.58;101624.28;4900418;29;20454;-87
2024/01/25 08:31:40;;;;;;;0.90;0.57;;;;;;;12.34;42.68;101627.91;4900753;29;20811;-88
2024/01/25 08:34:08;;;;;;;0.50;0.50;;;;;;;12.48;42.88;101622.97;4900720;29;20421;-86
2024/01/25 08:36:36;;;;;;;0.52;0.50;;;;;;;12.71;42.78;101618.75;4906917;29;20802;-86
2024/01/25 08:39:03;;;;;;;2.03;0.60;;;;;;;12.57;41.34;101620.19;4902449;29;20403;-87
2024/01/25 08:41:33;;;;;;;0.93;0.50;;;;;;;12.37;41.39;101609.00;4901116;29;20409;-89
2024/01/25 08:44:02;;;;;;;1.30;0.68;;;;;;;12.34;41.59;101614.63;4899787;29;20395;-86
2024/01/25 08:46:31;;;;;;;1.63;1.00;;;;;;;12.59;41.50;101620.03;4899872;29;20434;-88
2024/01/25 08:48:57;;;;;;;1.80;0.90;;;;;;;12.52;41.24;101614.53;4899687;29;20419;-89
2024/01/25 08:51:23;;;;;;;3.35;0.73;;;;;;;12.51;41.32;101631.47;4899887;29;20417;-88
2024/01/25 08:53:54;;;;;;;1.20;0.45;;;;;;;12.48;40.84;101631.81;4899399;29;20418;-88
2024/01/25 08:56:19;;;;;;;2.90;1.10;;;;;;;12.50;41.67;101636.97;4899076;29;20425;-88
2024/01/25 08:58:50;;;;;;;1.27;0.50;;;;;;;12.61;41.40;101624.19;4898640;29;20438;-88
2024/01/25 09:01:21;;;;;;;1.05;0.75;;;;;;;12.71;41.37;101631.19;4898845;29;20409;-87
2024/01/25 09:03:47;;;;;;;1.20;0.50;;;;;;;12.45;41.34;101604.69;4883852;29;20398;-87
2024/01/25 09:06:15;;;;;;;1.65;1.00;;;;;;;12.38;41.39;101617.78;4884996;29;20445;-88
2024/01/25 09:08:44;;;;;;;1.52;0.40;;;;;;;12.60;41.39;101627.88;4901727;29;20394;-90
2024/01/25 09:11:09;;;;;;;1.92;1.60;;;;;;;12.49;41.56;101614.84;4898812;29;20414;-88
2024/01/25 09:13:35;;;;;;;0.55;0.43;;;;;;;12.57;41.46;101620.19;4899444;29;20413;-86
2024/01/25 09:16:05;;;;;;;1.90;0.80;;;;;;;12.40;41.68;101613.13;4902727;29;20401;-91
2024/01/25 09:18:35;;;;;;;1.95;1.10;;;;;;;12.51;41.77;101612.84;4903219;29;20490;-90
2024/01/25 09:21:04;;;;;;;2.50;1.20;;;;;;;12.64;41.69;101609.75;4904064;29;20944;-90
2024/01/25 09:23:30;;;;;;;2.38;1.05;;;;;;;12.52;41.83;101611.03;4900901;29;20771;-90
2024/01/25 09:25:59;;;;;;;1.20;0.60;;;;;;;12.43;42.04;101607.50;4901537;29;20917;-88
2024/01/25 09:28:28;;;;;;;1.65;0.60;;;;;;;12.51;42.04;101604.03;4900134;29;20426;-90
2024/01/25 09:30:53;;;;;;;1.70;0.97;;;;;;;12.59;42.17;101591.59;4902417;29;20406;-87
2024/01/25 09:33:19;;;;;;;2.07;0.70;;;;;;;12.63;42.04;101587.63;4895549;29;20432;-88
2024/01/25 09:35:47;;;;;;;1.58;0.68;;;;;;;12.82;41.83;101585.69;4897162;29;20908;-87
2024/01/25 09:38:16;;;;;;;0.57;0.30;;;;;;;12.81;41.91;101586.69;4900135;29;20425;-88
2024/01/25 09:40:49;;;;;;;1.90;0.93;;;;;;;12.45;42.38;101591.41;4898308;29;20410;-88
2024/01/25 09:43:14;;;;;;;1.40;0.40;;;;;;;12.53;42.35;101575.44;4898678;29;20405;-88
2024/01/25 09:45:41;;;;;;;1.15;0.70;;;;;;;12.66;41.85;101589.16;4902140;29;20402;-87
2024/01/25 09:48:10;;;;;;;1.85;1.00;;;;;;;12.47;41.60;101574.28;4885560;29;20913;-88
2024/01/25 09:50:38;;;;;;;1.70;1.00;;;;;;;12.69;41.40;101574.66;4885514;29;20778;-88
2024/01/25 09:53:05;;;;;;;2.65;1.00;;;;;;;12.69;41.50;101572.84;4901047;29;20843;-90
2024/01/25 09:55:38;;;;;;;1.17;0.65;;;;;;;12.89;41.45;101567.22;4900655;29;20442;-88
2024/01/25 09:58:07;;;;;;;2.38;0.93;;;;;;;12.95;41.27;101564.75;4899652;29;20435;-88
2024/01/25 10:03:13;;;;;;;0.93;0.60;;;;;;;13.10;40.84;101582.72;4901887;29;20933;-89
2024/01/25 10:05:38;;;;;;;0.65;0.38;;;;;;;12.96;40.16;101581.53;4901575;29;20406;-88
2024/01/25 10:08:12;;;;;;;1.23;0.57;;;;;;;12.89;41.21;101576.06;4897688;29;20454;-87
2024/01/25 10:10:39;;;;;;;1.08;0.70;;;;;;;12.75;40.75;101593.47;4886974;29;20785;-88
2024/01/25 10:13:12;;;;;;;1.90;0.80;;;;;;;12.56;40.43;101588.44;4884621;29;20524;-88
2024/01/25 10:15:41;;;;;;;1.50;0.95;;;;;;;12.27;40.86;101575.53;4898430;29;20510;-89
2024/01/25 10:18:12;;;;;;;2.30;0.80;;;;;;;12.43;40.86;101584.41;4896325;29;20422;-88
2024/01/25 10:20:45;;;;;;;1.50;0.60;;;;;;;12.62;40.94;101583.31;4898013;29;20438;-90
2024/01/25 10:23:13;;;;;;;2.72;1.08;;;;;;;12.39;40.72;101568.94;4896639;29;20549;-88
2024/01/25 10:25:41;;;;;;;1.98;0.70;;;;;;;12.45;41.17;101568.28;4896626;29;20405;-89
2024/01/25 10:28:10;;;;;;;3.47;1.08;;;;;;;12.63;40.99;101571.66;4898121;29;20818;-90
2024/01/25 10:30:38;;;;;;;1.70;0.60;;;;;;;12.49;41.44;101584.75;4896851;29;20437;-88
2024/01/25 10:33:04;;;;;;;0.77;0.60;;;;;;;12.42;41.46;101577.44;4896849;29;20418;-88
2024/01/25 10:35:36;;;;;;;1.33;0.73;;;;;;;12.43;41.39;101564.97;4896853;29;20406;-89
2024/01/25 10:38:03;;;;;;;1.42;0.55;;;;;;;12.23;41.38;101564.41;4899144;29;20395;-87
2024/01/25 10:40:29;;;;;;;1.42;0.63;;;;;;;12.02;41.93;101552.31;4903905;29;20402;-88
2024/01/25 10:42:56;;;;;;;0.60;0.30;;;;;;;12.01;41.65;101536.53;4908238;29;21102;-89
2024/01/25 10:45:23;;;;;;;2.20;1.02;;;;;;;12.18;41.79;101535.63;4891632;29;20462;-89
2024/01/25 10:47:51;;;;;;;2.38;0.68;;;;;;;12.24;41.81;101536.81;4913012;29;20398;-87
2024/01/25 10:50:22;;;;;;;1.92;0.60;;;;;;;12.09;41.58;101531.28;4913062;29;20521;-89
2024/01/25 10:52:50;;;;;;;2.50;0.50;;;;;;;12.31;41.44;101526.38;4906738;29;20417;-89
2024/01/25 10:55:27;;;;;;;0.93;0.80;;;;;;;12.04;41.22;101509.66;4907467;29;20426;-89
2024/01/25 10:57:53;;;;;;;1.90;0.55;;;;;;;12.22;41.10;101515.69;4892518;29;20410;-89
2024/01/25 11:00:21;;;;;;;1.35;1.08;;;;;;;12.45;41.17;101509.78;4909692;29;20405;-88
2024/01/25 11:02:52;;;;;;;1.00;0.50;;;;;;;12.07;41.39;101514.66;4908045;29;20524;-87
2024/01/25 11:05:20;;;;;;;1.90;0.60;;;;;;;11.98;42.09;101508.47;4911105;29;20390;-89
2024/01/25 11:08:00;;;;;;;2.20;0.93;;;;;;;12.02;41.69;101496.53;4913918;29;20430;-86
2024/01/25 11:10:28;;;;;;;1.90;0.73;;;;;;;12.09;41.74;101477.28;4911372;29;20389;-87
2024/01/25 11:13:05;;;;;;;1.75;0.55;;;;;;;12.09;41.34;101472.81;4891494;29;20413;-87
2024/01/25 11:15:35;;;;;;;4.07;1.40;;;;;;;11.97;41.68;101460.81;4901655;29;20433;-88
2024/01/25 11:18:08;;;;;;;1.80;0.60;;;;;;;11.94;41.91;101437.19;4902044;29;20479;-88
2024/01/25 11:20:39;;;;;;;2.22;0.70;;;;;;;12.17;41.53;101440.09;4905468;29;20406;-88
2024/01/25 11:23:07;;;;;;;2.40;0.60;;;;;;;12.24;40.79;101422.50;4910977;29;20794;-89
2024/01/25 11:25:43;;;;;;;3.15;0.95;;;;;;;12.22;40.54;101422.66;4908654;29;20401;-88
2024/01/25 11:28:09;;;;;;;1.42;0.50;;;;;;;12.29;39.97;101422.03;4908825;29;20390;-89
2024/01/25 11:30:37;;;;;;;1.77;0.70;;;;;;;12.33;39.72;101410.06;4909558;29;20394;-87
2024/01/25 11:33:10;;;;;;;0.80;0.50;;;;;;;12.48;39.48;101407.56;4908519;29;20585;-90
2024/01/25 11:35:38;;;;;;;0.70;0.40;;;;;;;12.60;38.96;101425.72;4906589;29;20398;-89
2024/01/25 11:38:11;;;;;;;2.93;0.73;;;;;;;12.72;39.04;101433.38;4905113;29;20421;-88